Time;durP1;ratioP1;P1;durP2;ratioP2;P2;SDS_P1;SDS_P2;PMS_P1;PMS_P2;Temp;Humidity;BMP_temperature;BMP_pressure;BME280_temperature;BME280_humidity;BME280_pressure;Samples;Min_cycle;Max_cycle;Signal;HPM_P1;HPM_P2
2020/12/30 00:00:49;;;;;;;6.07;4.27;;;;;;;;;;5048633;28;20222;-74
2020/12/30 00:03:14;;;;;;;7.87;5.30;;;;;;;;;;5050239;28;20197;-75
2020/12/30 00:05:39;;;;;;;9.43;5.10;;;;;;;;;;5054555;28;20744;-74
2020/12/30 00:08:05;;;;;;;7.00;4.53;;;;;;;;;;5051335;28;20177;-75
2020/12/30 00:10:30;;;;;;;7.50;4.63;;;;;;;;;;5054265;28;20191;-74
2020/12/30 00:12:55;;;;;;;7.53;4.70;;;;;;;;;;5051614;28;20197;-75
2020/12/30 00:15:20;;;;;;;8.80;4.47;;;;;;;;;;5050248;28;20215;-74
2020/12/30 00:17:46;;;;;;;7.17;5.00;;;;;;;;;;5051627;28;20173;-74
2020/12/30 00:20:13;;;;;;;8.33;5.97;;;;;;;;;;5047326;28;20265;-75
2020/12/30 00:22:38;;;;;;;8.93;4.90;;;;;;;;;;5046840;28;20177;-75
2020/12/30 00:25:04;;;;;;;9.87;5.60;;;;;;;;;;5051715;28;20607;-75
2020/12/30 00:27:29;;;;;;;7.27;5.73;;;;;;;;;;5045345;28;20853;-75
2020/12/30 00:29:54;;;;;;;9.33;5.83;;;;;;;;;;5044664;28;20178;-76
2020/12/30 00:32:19;;;;;;;12.73;6.27;;;;;;;;;;5040264;28;20269;-75
2020/12/30 00:34:45;;;;;;;9.83;5.80;;;;;;;;;;5045189;28;20201;-75
2020/12/30 00:37:10;;;;;;;9.40;5.80;;;;;;;;;;5043670;28;20208;-74
2020/12/30 00:39:35;;;;;;;11.60;6.57;;;;;;;;;;5044094;28;20235;-74
2020/12/30 00:42:00;;;;;;;12.07;6.70;;;;;;;;;;5043589;28;20201;-74
2020/12/30 00:44:26;;;;;;;11.20;7.50;;;;;;;;;;5043571;28;20209;-75
2020/12/30 00:46:54;;;;;;;9.07;6.17;;;;;;;;;;5042471;28;20724;-75
2020/12/30 00:49:20;;;;;;;9.13;6.43;;;;;;;;;;5043244;28;20239;-75
2020/12/30 00:51:51;;;;;;;11.97;7.03;;;;;;;;;;5043311;28;20182;-75
2020/12/30 00:54:17;;;;;;;11.10;6.23;;;;;;;;;;5039739;28;20202;-74
2020/12/30 00:56:42;;;;;;;10.10;6.50;;;;;;;;;;5041064;28;20212;-75
2020/12/30 00:59:07;;;;;;;12.57;6.33;;;;;;;;;;5041636;28;20271;-75
2020/12/30 01:01:32;;;;;;;11.47;6.10;;;;;;;;;;5042499;28;20726;-75
2020/12/30 01:03:57;;;;;;;14.47;6.67;;;;;;;;;;5038348;28;20197;-75
2020/12/30 01:06:22;;;;;;;14.17;7.43;;;;;;;;;;5048569;28;20193;-75
2020/12/30 01:08:48;;;;;;;11.87;7.07;;;;;;;;;;5046747;28;20221;-74
2020/12/30 01:11:13;;;;;;;12.97;7.43;;;;;;;;;;5045987;28;20227;-74
2020/12/30 01:13:38;;;;;;;11.50;7.53;;;;;;;;;;5048700;28;20201;-74
2020/12/30 01:16:03;;;;;;;14.23;8.20;;;;;;;;;;5046730;28;20206;-74
2020/12/30 01:18:28;;;;;;;15.20;7.70;;;;;;;;;;5042683;28;20256;-74
2020/12/30 01:21:02;;;;;;;12.10;7.93;;;;;;;;;;5050010;28;20173;-75
2020/12/30 01:23:28;;;;;;;12.17;8.50;;;;;;;;;;5047637;28;20203;-75
2020/12/30 01:25:54;;;;;;;11.93;8.17;;;;;;;;;;5056240;28;20287;-74
2020/12/30 01:28:19;;;;;;;14.37;9.43;;;;;;;;;;5045737;28;20181;-74
2020/12/30 01:30:47;;;;;;;16.00;8.57;;;;;;;;;;5047500;28;20574;-76
2020/12/30 01:33:12;;;;;;;15.70;8.97;;;;;;;;;;5046331;28;20283;-74
2020/12/30 01:35:37;;;;;;;12.13;7.50;;;;;;;;;;5046313;28;20189;-75
2020/12/30 01:38:02;;;;;;;16.50;9.67;;;;;;;;;;5042231;28;20189;-74
2020/12/30 01:40:27;;;;;;;18.03;8.97;;;;;;;;;;5047106;28;20252;-74
2020/12/30 01:42:52;;;;;;;15.87;10.47;;;;;;;;;;5045079;28;20204;-74
2020/12/30 01:45:18;;;;;;;18.10;10.00;;;;;;;;;;5048293;28;20184;-75
2020/12/30 01:47:46;;;;;;;16.53;9.37;;;;;;;;;;5046416;28;20644;-76
2020/12/30 01:50:14;;;;;;;19.23;11.63;;;;;;;;;;5047092;28;20193;-74
2020/12/30 01:52:39;;;;;;;26.20;11.70;;;;;;;;;;5045955;28;20714;-74
2020/12/30 01:55:05;;;;;;;18.90;11.37;;;;;;;;;;5047225;28;20186;-74
2020/12/30 01:57:31;;;;;;;18.30;12.40;;;;;;;;;;5048984;28;20243;-77
2020/12/30 01:59:56;;;;;;;20.70;11.53;;;;;;;;;;5050048;28;20181;-75
2020/12/30 02:02:23;;;;;;;22.70;11.77;;;;;;;;;;5045674;28;20188;-74
2020/12/30 02:04:52;;;;;;;20.17;12.47;;;;;;;;;;5046808;28;20194;-75
2020/12/30 02:07:17;;;;;;;21.60;12.63;;;;;;;;;;5044980;28;20173;-75
2020/12/30 02:09:43;;;;;;;22.37;13.57;;;;;;;;;;5050231;28;20176;-75
2020/12/30 02:12:12;;;;;;;23.23;13.10;;;;;;;;;;5048184;28;20224;-74
2020/12/30 02:14:38;;;;;;;21.23;11.87;;;;;;;;;;5049640;28;20708;-77
2020/12/30 02:17:03;;;;;;;21.20;12.63;;;;;;;;;;5050742;28;20213;-76
2020/12/30 02:19:28;;;;;;;21.20;12.77;;;;;;;;;;5049162;28;20182;-75
2020/12/30 02:22:01;;;;;;;25.20;13.23;;;;;;;;;;5046104;28;20180;-75
2020/12/30 02:24:27;;;;;;;22.93;13.43;;;;;;;;;;5049562;28;20225;-75
2020/12/30 02:26:53;;;;;;;23.43;11.83;;;;;;;;;;5047995;28;20232;-75
2020/12/30 02:29:18;;;;;;;24.00;13.17;;;;;;;;;;5049506;28;20617;-75
2020/12/30 02:31:43;;;;;;;20.33;12.77;;;;;;;;;;5054000;28;20612;-75
2020/12/30 02:34:08;;;;;;;19.87;11.50;;;;;;;;;;5052287;28;20211;-76
2020/12/30 02:36:34;;;;;;;22.53;12.63;;;;;;;;;;5051514;28;20237;-74
2020/12/30 02:38:59;;;;;;;24.73;13.30;;;;;;;;;;5051539;28;20170;-76
2020/12/30 02:41:24;;;;;;;22.10;13.63;;;;;;;;;;5046128;28;20190;-75
2020/12/30 02:43:49;;;;;;;21.80;12.07;;;;;;;;;;5053340;28;20208;-75
2020/12/30 02:46:15;;;;;;;20.73;12.90;;;;;;;;;;5051418;28;20197;-75
2020/12/30 02:48:40;;;;;;;22.73;11.93;;;;;;;;;;5047704;28;20185;-75
2020/12/30 02:51:05;;;;;;;20.03;12.00;;;;;;;;;;5046024;28;20194;-75
2020/12/30 02:53:31;;;;;;;18.27;10.97;;;;;;;;;;5051447;28;20211;-77
2020/12/30 02:55:56;;;;;;;19.93;12.27;;;;;;;;;;5048674;28;20202;-75
2020/12/30 02:58:21;;;;;;;17.70;11.47;;;;;;;;;;5053224;28;20180;-75
2020/12/30 03:00:46;;;;;;;22.73;13.67;;;;;;;;;;5049050;28;20205;-75
2020/12/30 03:03:11;;;;;;;22.83;13.27;;;;;;;;;;5051354;28;20553;-75
2020/12/30 03:05:36;;;;;;;23.80;13.13;;;;;;;;;;5050143;28;20187;-75
2020/12/30 03:08:02;;;;;;;24.50;14.33;;;;;;;;;;5050278;28;20197;-75
2020/12/30 03:10:27;;;;;;;20.57;13.37;;;;;;;;;;5051067;28;20192;-75
2020/12/30 03:12:52;;;;;;;25.48;13.07;;;;;;;;;;5051926;28;20212;-75
2020/12/30 03:15:17;;;;;;;25.47;13.20;;;;;;;;;;5051091;28;20205;-76
2020/12/30 03:17:42;;;;;;;19.27;12.33;;;;;;;;;;5050080;28;20180;-75
2020/12/30 03:20:08;;;;;;;24.00;14.20;;;;;;;;;;5052840;28;20643;-75
2020/12/30 03:22:33;;;;;;;20.77;13.23;;;;;;;;;;5046839;28;20192;-75
2020/12/30 03:24:58;;;;;;;21.50;13.80;;;;;;;;;;5046447;28;20174;-76
2020/12/30 03:27:23;;;;;;;20.75;13.05;;;;;;;;;;5049519;28;20378;-75
2020/12/30 03:29:48;;;;;;;23.00;13.70;;;;;;;;;;5051564;28;20173;-76
2020/12/30 03:32:13;;;;;;;25.10;13.03;;;;;;;;;;5050497;28;20227;-74
2020/12/30 03:34:39;;;;;;;24.80;13.47;;;;;;;;;;5050621;28;20243;-75
2020/12/30 03:37:04;;;;;;;26.10;13.97;;;;;;;;;;5050287;28;20686;-74
2020/12/30 03:39:29;;;;;;;22.53;13.77;;;;;;;;;;5050871;28;20215;-75
2020/12/30 03:41:54;;;;;;;27.43;14.00;;;;;;;;;;5044475;28;20555;-75
2020/12/30 03:44:19;;;;;;;26.00;13.63;;;;;;;;;;5050530;28;20400;-75
2020/12/30 03:46:45;;;;;;;24.67;13.70;;;;;;;;;;5050994;28;20654;-75
2020/12/30 03:49:10;;;;;;;26.50;13.17;;;;;;;;;;5051036;28;20255;-75
2020/12/30 03:51:35;;;;;;;22.27;14.57;;;;;;;;;;5049866;28;20202;-74
2020/12/30 03:54:00;;;;;;;28.10;14.40;;;;;;;;;;5051411;28;20588;-75
2020/12/30 03:56:25;;;;;;;24.10;14.10;;;;;;;;;;5048664;28;20201;-75
2020/12/30 03:58:51;;;;;;;21.03;12.33;;;;;;;;;;5050432;28;20190;-76
2020/12/30 04:01:16;;;;;;;20.37;12.30;;;;;;;;;;5049341;28;20224;-74
2020/12/30 04:03:41;;;;;;;25.15;12.32;;;;;;;;;;5052043;28;20185;-75
2020/12/30 04:06:06;;;;;;;20.20;11.87;;;;;;;;;;5050308;28;20675;-74
2020/12/30 04:08:31;;;;;;;20.53;11.90;;;;;;;;;;5050840;28;20173;-75
2020/12/30 04:10:57;;;;;;;20.47;10.20;;;;;;;;;;5048630;28;20581;-75
2020/12/30 04:13:22;;;;;;;16.50;9.93;;;;;;;;;;5049206;28;20244;-75
2020/12/30 04:15:47;;;;;;;13.13;8.50;;;;;;;;;;5049472;28;20255;-75
2020/12/30 04:18:12;;;;;;;12.00;8.43;;;;;;;;;;5048207;28;20185;-75
2020/12/30 04:20:38;;;;;;;12.47;7.10;;;;;;;;;;5051479;28;20589;-74
2020/12/30 04:23:03;;;;;;;16.33;8.90;;;;;;;;;;5048674;28;20197;-76
2020/12/30 04:25:28;;;;;;;10.87;6.73;;;;;;;;;;5049656;28;20210;-74
2020/12/30 04:27:54;;;;;;;10.33;6.47;;;;;;;;;;5050237;28;20176;-75
2020/12/30 04:30:19;;;;;;;10.90;5.70;;;;;;;;;;5048927;28;20211;-75
2020/12/30 04:32:44;;;;;;;21.13;8.63;;;;;;;;;;5048811;28;20182;-75
2020/12/30 04:35:09;;;;;;;8.73;5.13;;;;;;;;;;5049726;28;20296;-76
2020/12/30 04:37:34;;;;;;;6.33;4.30;;;;;;;;;;5049383;28;20388;-75
2020/12/30 04:40:00;;;;;;;8.30;5.17;;;;;;;;;;5049988;28;20553;-75
2020/12/30 04:42:30;;;;;;;6.60;4.17;;;;;;;;;;5047882;28;20665;-74
2020/12/30 04:44:56;;;;;;;8.27;4.70;;;;;;;;;;5049238;28;20690;-75
2020/12/30 04:47:23;;;;;;;8.63;4.77;;;;;;;;;;5049704;28;20190;-74
2020/12/30 04:49:48;;;;;;;7.23;4.50;;;;;;;;;;5064205;28;20544;-75
2020/12/30 04:52:17;;;;;;;7.93;3.63;;;;;;;;;;5043988;28;20181;-74
2020/12/30 04:54:43;;;;;;;6.90;4.30;;;;;;;;;;5050072;28;20233;-75
2020/12/30 04:57:13;;;;;;;8.00;4.23;;;;;;;;;;5048570;28;20201;-75
2020/12/30 04:59:40;;;;;;;7.80;4.03;;;;;;;;;;5050712;28;20201;-75
2020/12/30 05:02:05;;;;;;;9.00;3.33;;;;;;;;;;5046756;28;20178;-75
2020/12/30 05:04:31;;;;;;;11.67;4.50;;;;;;;;;;5058574;28;20281;-74
2020/12/30 05:06:58;;;;;;;6.57;3.70;;;;;;;;;;5049379;28;20188;-74
2020/12/30 05:09:23;;;;;;;8.30;3.73;;;;;;;;;;5049805;28;20188;-75
2020/12/30 05:11:49;;;;;;;8.53;3.50;;;;;;;;;;5050555;28;20189;-75
2020/12/30 05:14:14;;;;;;;6.57;4.00;;;;;;;;;;5050446;28;20259;-75
2020/12/30 05:16:39;;;;;;;8.60;3.90;;;;;;;;;;5047673;28;20240;-74
2020/12/30 05:19:05;;;;;;;9.77;4.17;;;;;;;;;;5048533;28;20177;-75
2020/12/30 05:21:30;;;;;;;6.57;3.73;;;;;;;;;;5048718;28;20177;-75
2020/12/30 05:23:56;;;;;;;6.53;4.27;;;;;;;;;;5050830;28;20284;-75
2020/12/30 05:26:21;;;;;;;7.97;4.23;;;;;;;;;;5048937;28;20284;-76
2020/12/30 05:28:47;;;;;;;8.40;4.37;;;;;;;;;;5044129;28;20189;-76
2020/12/30 05:31:12;;;;;;;7.40;4.00;;;;;;;;;;5047786;28;20194;-76
2020/12/30 05:33:37;;;;;;;7.53;4.30;;;;;;;;;;5048773;28;20572;-77
2020/12/30 05:36:02;;;;;;;8.33;4.70;;;;;;;;;;5049326;28;20280;-76
2020/12/30 05:38:28;;;;;;;7.20;4.67;;;;;;;;;;5046561;28;20639;-76
2020/12/30 05:40:53;;;;;;;9.37;5.07;;;;;;;;;;5045049;28;20208;-76
2020/12/30 05:43:18;;;;;;;7.87;5.27;;;;;;;;;;5050320;28;20198;-76
2020/12/30 05:45:44;;;;;;;9.97;5.13;;;;;;;;;;5049520;28;20560;-76
2020/12/30 05:48:09;;;;;;;9.07;5.23;;;;;;;;;;5051450;28;20608;-76
2020/12/30 05:50:45;;;;;;;9.13;5.27;;;;;;;;;;5054297;28;20245;-76
2020/12/30 05:53:13;;;;;;;8.40;5.63;;;;;;;;;;5049178;28;20204;-76
2020/12/30 05:55:38;;;;;;;9.57;5.23;;;;;;;;;;5051988;28;20206;-76
2020/12/30 05:58:03;;;;;;;10.73;5.70;;;;;;;;;;5053125;28;20178;-76
2020/12/30 06:00:29;;;;;;;12.00;5.57;;;;;;;;;;5066088;28;20201;-76
2020/12/30 06:02:54;;;;;;;11.33;5.50;;;;;;;;;;5053371;28;20224;-76
2020/12/30 06:05:20;;;;;;;7.60;5.20;;;;;;;;;;5065226;28;20196;-77
2020/12/30 06:07:46;;;;;;;8.20;5.07;;;;;;;;;;5054172;28;20189;-77
2020/12/30 06:10:13;;;;;;;9.90;5.37;;;;;;;;;;5060684;28;20185;-77
2020/12/30 06:12:42;;;;;;;6.30;4.50;;;;;;;;;;5053184;28;20639;-76
2020/12/30 06:15:08;;;;;;;7.53;4.90;;;;;;;;;;5051747;28;20260;-77
2020/12/30 06:17:33;;;;;;;6.60;4.57;;;;;;;;;;5064464;28;20299;-76
2020/12/30 06:19:58;;;;;;;9.27;4.93;;;;;;;;;;5050131;28;20744;-76
2020/12/30 06:22:24;;;;;;;10.77;4.87;;;;;;;;;;5052244;28;20170;-76
2020/12/30 06:24:51;;;;;;;10.30;4.30;;;;;;;;;;5050702;28;20206;-76
2020/12/30 06:27:18;;;;;;;7.73;4.73;;;;;;;;;;5048392;28;20190;-75
2020/12/30 06:29:43;;;;;;;6.17;4.47;;;;;;;;;;5051988;28;20186;-76
2020/12/30 06:32:08;;;;;;;6.80;4.17;;;;;;;;;;5051180;28;20181;-76
2020/12/30 06:34:37;;;;;;;7.30;4.73;;;;;;;;;;5064790;28;20355;-76
2020/12/30 06:37:02;;;;;;;9.30;5.83;;;;;;;;;;5051583;28;20251;-76
2020/12/30 06:39:27;;;;;;;9.10;5.37;;;;;;;;;;5047532;28;20600;-75
2020/12/30 06:41:57;;;;;;;7.17;4.73;;;;;;;;;;5052255;28;20264;-75
2020/12/30 06:44:38;;;;;;;8.97;5.17;;;;;;;;;;5051337;28;20204;-76
2020/12/30 06:47:04;;;;;;;6.13;4.60;;;;;;;;;;5051300;28;20550;-75
2020/12/30 06:49:29;;;;;;;10.57;4.70;;;;;;;;;;5052782;28;20181;-75
2020/12/30 06:51:54;;;;;;;8.13;4.37;;;;;;;;;;5052452;28;20231;-75
2020/12/30 06:54:20;;;;;;;6.60;4.20;;;;;;;;;;5053372;28;20228;-75
2020/12/30 06:56:46;;;;;;;8.10;4.83;;;;;;;;;;5049404;28;20245;-76
2020/12/30 06:59:17;;;;;;;11.03;5.93;;;;;;;;;;5049957;28;20260;-75
2020/12/30 07:01:59;;;;;;;8.60;5.50;;;;;;;;;;5045136;28;20194;-75
2020/12/30 07:04:25;;;;;;;10.73;6.20;;;;;;;;;;5049715;28;20201;-76
2020/12/30 07:06:52;;;;;;;10.13;6.40;;;;;;;;;;5052677;28;20205;-76
2020/12/30 07:09:26;;;;;;;10.30;6.77;;;;;;;;;;5052069;28;20578;-76
2020/12/30 07:11:53;;;;;;;9.97;6.50;;;;;;;;;;5063922;28;20663;-75
2020/12/30 07:14:25;;;;;;;13.10;7.33;;;;;;;;;;5050513;28;20502;-75
2020/12/30 07:16:51;;;;;;;12.60;7.63;;;;;;;;;;5048150;28;20709;-76
2020/12/30 07:19:26;;;;;;;11.03;7.57;;;;;;;;;;5049678;28;20189;-75
2020/12/30 07:21:54;;;;;;;15.90;8.33;;;;;;;;;;5049936;28;20192;-75
2020/12/30 07:24:24;;;;;;;13.30;7.87;;;;;;;;;;5050594;28;20251;-75
2020/12/30 07:26:51;;;;;;;14.17;8.03;;;;;;;;;;5051337;28;20272;-76
2020/12/30 07:29:16;;;;;;;14.33;8.63;;;;;;;;;;5049051;28;20217;-75
2020/12/30 07:31:45;;;;;;;18.20;9.17;;;;;;;;;;5060087;28;20220;-76
2020/12/30 07:34:18;;;;;;;13.27;8.33;;;;;;;;;;5048633;28;20678;-76
2020/12/30 07:36:44;;;;;;;17.60;8.93;;;;;;;;;;5049117;28;20690;-75
2020/12/30 07:39:09;;;;;;;15.20;8.57;;;;;;;;;;5046658;28;20296;-75
2020/12/30 07:41:42;;;;;;;15.77;7.67;;;;;;;;;;5048736;28;20182;-75
2020/12/30 07:44:07;;;;;;;16.77;8.63;;;;;;;;;;5050790;28;20211;-75
2020/12/30 07:46:32;;;;;;;13.20;8.17;;;;;;;;;;5051432;28;20557;-75
2020/12/30 07:49:17;;;;;;;16.73;8.93;;;;;;;;;;5050186;28;20185;-76
2020/12/30 07:51:46;;;;;;;13.73;8.63;;;;;;;;;;5044647;28;20208;-75
2020/12/30 07:54:14;;;;;;;13.77;8.53;;;;;;;;;;5047760;28;20281;-76
2020/12/30 07:56:40;;;;;;;16.07;8.83;;;;;;;;;;5051128;28;20214;-75
2020/12/30 07:59:05;;;;;;;15.53;9.77;;;;;;;;;;5048174;28;20189;-75
2020/12/30 08:01:30;;;;;;;13.20;8.13;;;;;;;;;;5049989;28;20367;-75
2020/12/30 08:04:05;;;;;;;12.52;8.07;;;;;;;;;;5050053;28;20580;-75
2020/12/30 08:06:30;;;;;;;14.77;8.53;;;;;;;;;;5047102;28;20222;-75
2020/12/30 08:08:55;;;;;;;15.27;7.53;;;;;;;;;;5050908;28;20678;-75
2020/12/30 08:11:20;;;;;;;14.33;8.67;;;;;;;;;;5049848;28;20596;-75
2020/12/30 08:13:46;;;;;;;10.33;6.37;;;;;;;;;;5050497;28;20274;-76
2020/12/30 08:16:12;;;;;;;10.57;6.23;;;;;;;;;;5050236;28;20193;-76
2020/12/30 08:18:47;;;;;;;13.00;8.13;;;;;;;;;;5050372;28;20706;-75
2020/12/30 08:21:12;;;;;;;14.53;5.60;;;;;;;;;;5051131;28;20390;-75
2020/12/30 08:23:37;;;;;;;8.03;5.20;;;;;;;;;;5047430;28;20296;-75
2020/12/30 08:26:03;;;;;;;8.63;5.50;;;;;;;;;;5050060;28;20181;-75
2020/12/30 08:28:29;;;;;;;7.53;5.13;;;;;;;;;;5048547;28;20182;-75
2020/12/30 08:30:59;;;;;;;7.83;4.30;;;;;;;;;;5047640;28;20193;-75
2020/12/30 08:33:25;;;;;;;8.23;4.80;;;;;;;;;;5049740;28;20624;-76
2020/12/30 08:35:54;;;;;;;6.70;4.47;;;;;;;;;;5050089;28;20221;-75
2020/12/30 08:38:20;;;;;;;5.90;3.93;;;;;;;;;;5047984;28;20184;-75
2020/12/30 08:40:50;;;;;;;5.40;4.23;;;;;;;;;;5051404;28;20325;-75
2020/12/30 08:43:26;;;;;;;7.27;4.07;;;;;;;;;;5043429;28;20683;-75
2020/12/30 08:45:51;;;;;;;5.47;3.90;;;;;;;;;;5047609;28;20181;-75
2020/12/30 08:48:20;;;;;;;4.82;3.67;;;;;;;;;;5045176;28;20186;-75
2020/12/30 08:50:46;;;;;;;6.47;3.10;;;;;;;;;;5050305;28;20666;-75
2020/12/30 08:53:14;;;;;;;5.47;3.73;;;;;;;;;;5049323;28;20221;-76
2020/12/30 08:55:39;;;;;;;7.97;4.67;;;;;;;;;;5049322;28;20196;-75
2020/12/30 08:58:05;;;;;;;8.27;5.50;;;;;;;;;;5049653;28;20174;-75
2020/12/30 09:00:37;;;;;;;9.97;6.47;;;;;;;;;;5048600;28;20181;-75
2020/12/30 09:03:12;;;;;;;11.23;6.83;;;;;;;;;;5050194;28;20208;-75
2020/12/30 09:05:37;;;;;;;13.50;8.03;;;;;;;;;;5049373;28;20173;-75
2020/12/30 09:08:13;;;;;;;15.27;9.20;;;;;;;;;;5047084;28;20666;-75
2020/12/30 09:10:38;;;;;;;20.73;10.73;;;;;;;;;;5048415;28;20553;-75
2020/12/30 09:13:10;;;;;;;20.07;13.23;;;;;;;;;;5048487;28;20204;-76
2020/12/30 09:15:35;;;;;;;24.13;13.57;;;;;;;;;;5048794;28;20214;-75
2020/12/30 09:18:00;;;;;;;22.83;13.90;;;;;;;;;;5049875;28;20658;-75
2020/12/30 09:20:30;;;;;;;27.93;15.83;;;;;;;;;;5049799;28;20190;-75
2020/12/30 09:22:58;;;;;;;20.70;13.17;;;;;;;;;;5047332;28;20275;-75
2020/12/30 09:25:24;;;;;;;21.60;13.93;;;;;;;;;;5046887;28;20187;-75
2020/12/30 09:27:49;;;;;;;19.17;13.63;;;;;;;;;;5047415;28;21313;-74
2020/12/30 09:30:15;;;;;;;16.90;12.23;;;;;;;;;;5046459;28;20455;-75
2020/12/30 09:32:42;;;;;;;21.83;15.70;;;;;;;;;;5050562;28;20607;-76
2020/12/30 09:35:08;;;;;;;20.83;13.97;;;;;;;;;;5050163;28;20184;-75
2020/12/30 09:37:34;;;;;;;22.00;13.43;;;;;;;;;;5050422;28;20209;-75
2020/12/30 09:40:07;;;;;;;20.57;13.60;;;;;;;;;;5045558;28;20202;-75
2020/12/30 09:42:32;;;;;;;18.93;12.93;;;;;;;;;;5040891;28;20184;-75
2020/12/30 09:44:57;;;;;;;20.17;13.13;;;;;;;;;;5049795;28;20646;-75
2020/12/30 09:47:22;;;;;;;16.83;12.10;;;;;;;;;;5048879;28;20738;-74
2020/12/30 09:49:48;;;;;;;18.57;12.70;;;;;;;;;;5050313;28;20176;-75
2020/12/30 09:52:13;;;;;;;16.33;10.63;;;;;;;;;;5050168;28;20173;-75
2020/12/30 09:54:38;;;;;;;15.97;9.47;;;;;;;;;;5047854;28;20217;-76
2020/12/30 09:57:03;;;;;;;16.03;9.40;;;;;;;;;;5049980;28;20235;-77
2020/12/30 09:59:28;;;;;;;12.17;8.07;;;;;;;;;;5050743;28;20175;-76
2020/12/30 10:01:54;;;;;;;13.43;9.07;;;;;;;;;;5050991;28;20178;-76
2020/12/30 10:04:19;;;;;;;13.47;8.67;;;;;;;;;;5049852;28;20202;-76
2020/12/30 10:06:47;;;;;;;10.93;7.30;;;;;;;;;;5064067;28;20182;-76
2020/12/30 10:09:13;;;;;;;8.83;7.00;;;;;;;;;;5049469;28;20201;-76
2020/12/30 10:11:38;;;;;;;13.10;7.10;;;;;;;;;;5050866;28;20260;-75
2020/12/30 10:14:03;;;;;;;11.93;6.93;;;;;;;;;;5062974;28;20686;-76
2020/12/30 10:16:31;;;;;;;9.20;7.27;;;;;;;;;;5050225;28;20601;-75
2020/12/30 10:18:57;;;;;;;10.27;7.83;;;;;;;;;;5050331;28;20180;-75
2020/12/30 10:21:31;;;;;;;13.23;8.03;;;;;;;;;;5050317;28;20304;-76
2020/12/30 10:23:57;;;;;;;9.43;6.70;;;;;;;;;;5045934;28;20809;-76
2020/12/30 10:26:22;;;;;;;9.13;6.63;;;;;;;;;;5047503;28;20314;-76
2020/12/30 10:28:47;;;;;;;6.27;5.67;;;;;;;;;;5045868;28;20636;-75
2020/12/30 10:31:13;;;;;;;10.00;5.23;;;;;;;;;;5047937;28;20177;-76
2020/12/30 10:33:38;;;;;;;7.83;5.07;;;;;;;;;;5050210;28;20706;-75
2020/12/30 10:36:05;;;;;;;8.17;5.87;;;;;;;;;;5061536;28;20214;-75
2020/12/30 10:38:30;;;;;;;8.17;5.00;;;;;;;;;;5052808;28;20166;-75
2020/12/30 10:40:56;;;;;;;4.20;3.80;;;;;;;;;;5052649;28;20179;-76
2020/12/30 10:43:21;;;;;;;5.35;3.40;;;;;;;;;;5050077;28;20241;-75
2020/12/30 10:45:46;;;;;;;2.90;2.53;;;;;;;;;;5053567;28;20231;-77
2020/12/30 10:48:11;;;;;;;5.07;2.20;;;;;;;;;;5049761;28;20173;-76
2020/12/30 10:50:36;;;;;;;2.97;1.70;;;;;;;;;;5048144;28;20230;-75
2020/12/30 10:53:02;;;;;;;5.00;1.50;;;;;;;;;;5053343;28;20789;-76
2020/12/30 10:55:27;;;;;;;3.13;1.17;;;;;;;;;;5051577;28;20178;-76
2020/12/30 10:57:52;;;;;;;2.67;1.23;;;;;;;;;;5052263;28;20178;-77
2020/12/30 11:00:17;;;;;;;3.37;1.40;;;;;;;;;;5052343;28;20662;-76
2020/12/30 11:02:42;;;;;;;4.60;1.57;;;;;;;;;;5063257;28;20234;-76
2020/12/30 11:05:07;;;;;;;1.67;1.20;;;;;;;;;;5049190;28;20166;-76
2020/12/30 11:07:33;;;;;;;1.27;0.90;;;;;;;;;;5051241;28;20260;-77
2020/12/30 11:09:58;;;;;;;2.10;1.00;;;;;;;;;;5046788;28;20193;-76
2020/12/30 11:12:23;;;;;;;2.83;1.00;;;;;;;;;;5051093;28;20191;-77
2020/12/30 11:14:48;;;;;;;2.03;0.80;;;;;;;;;;5051797;28;20217;-78
2020/12/30 11:17:13;;;;;;;2.80;0.80;;;;;;;;;;5050767;28;20263;-78
2020/12/30 11:19:38;;;;;;;0.90;0.50;;;;;;;;;;5052932;28;20181;-75
2020/12/30 11:22:04;;;;;;;2.00;0.80;;;;;;;;;;5043828;28;20189;-77
2020/12/30 11:24:29;;;;;;;2.58;0.80;;;;;;;;;;5047640;28;20198;-76
2020/12/30 11:26:54;;;;;;;1.00;0.70;;;;;;;;;;5048872;28;20189;-77
2020/12/30 11:29:19;;;;;;;0.80;0.60;;;;;;;;;;5050297;28;20571;-77
2020/12/30 11:31:44;;;;;;;1.73;0.87;;;;;;;;;;5050376;28;20189;-75
2020/12/30 11:34:10;;;;;;;1.23;0.53;;;;;;;;;;5048311;28;20213;-74
2020/12/30 11:36:35;;;;;;;1.73;0.60;;;;;;;;;;5064332;28;20327;-74
2020/12/30 11:39:01;;;;;;;0.60;0.53;;;;;;;;;;5048714;28;20626;-78
2020/12/30 11:41:26;;;;;;;1.27;0.50;;;;;;;;;;5052596;28;20167;-75
2020/12/30 11:43:51;;;;;;;2.13;0.93;;;;;;;;;;5051549;28;20198;-76
2020/12/30 11:46:16;;;;;;;2.33;0.53;;;;;;;;;;5051299;28;20702;-76
2020/12/30 11:48:42;;;;;;;2.13;0.87;;;;;;;;;;5051466;28;20654;-77
2020/12/30 11:51:07;;;;;;;3.90;0.93;;;;;;;;;;5052259;28;20712;-75
2020/12/30 11:53:32;;;;;;;1.40;0.70;;;;;;;;;;5049865;28;20556;-76
2020/12/30 11:55:58;;;;;;;2.80;0.87;;;;;;;;;;5051132;28;20253;-76
2020/12/30 11:58:23;;;;;;;2.50;1.33;;;;;;;;;;5049795;28;20184;-76
2020/12/30 12:00:48;;;;;;;1.83;1.17;;;;;;;;;;5049005;28;20190;-75
2020/12/30 12:03:13;;;;;;;1.97;1.10;;;;;;;;;;5051345;28;20268;-73
2020/12/30 12:05:38;;;;;;;2.20;0.97;;;;;;;;;;5047741;28;20178;-74
2020/12/30 12:08:03;;;;;;;1.67;1.07;;;;;;;;;;5050005;28;20224;-74
2020/12/30 12:10:29;;;;;;;3.57;1.43;;;;;;;;;;5048234;28;20205;-74
2020/12/30 12:12:54;;;;;;;3.60;1.40;;;;;;;;;;5051950;28;20209;-74
2020/12/30 12:15:21;;;;;;;2.53;1.10;;;;;;;;;;5048620;28;20275;-74
2020/12/30 12:17:46;;;;;;;4.03;1.70;;;;;;;;;;5065320;28;20531;-74
2020/12/30 12:20:11;;;;;;;2.97;2.00;;;;;;;;;;5050854;28;20181;-75
2020/12/30 12:22:37;;;;;;;4.43;1.73;;;;;;;;;;5049137;28;20254;-74
2020/12/30 12:25:02;;;;;;;3.17;1.70;;;;;;;;;;5050572;28;20189;-75
2020/12/30 12:27:27;;;;;;;2.90;2.10;;;;;;;;;;5047510;28;20272;-74
2020/12/30 12:29:52;;;;;;;2.60;1.80;;;;;;;;;;5049230;28;20209;-74
2020/12/30 12:32:19;;;;;;;4.77;2.53;;;;;;;;;;5049126;28;20258;-74
2020/12/30 12:34:45;;;;;;;4.10;2.00;;;;;;;;;;5050290;28;20205;-74
2020/12/30 12:37:12;;;;;;;4.17;2.20;;;;;;;;;;5047448;28;20201;-74
2020/12/30 12:39:37;;;;;;;2.13;1.90;;;;;;;;;;5050909;28;20170;-77
2020/12/30 12:42:03;;;;;;;3.17;2.00;;;;;;;;;;5045603;28;20672;-74
2020/12/30 12:44:28;;;;;;;5.87;1.93;;;;;;;;;;5048518;28;20205;-76
2020/12/30 12:46:53;;;;;;;5.03;2.80;;;;;;;;;;5044047;28;20268;-75
2020/12/30 12:49:19;;;;;;;4.13;1.87;;;;;;;;;;5051651;28;20335;-75
2020/12/30 12:51:44;;;;;;;4.77;1.77;;;;;;;;;;5050159;28;20315;-76
2020/12/30 12:54:10;;;;;;;4.03;2.00;;;;;;;;;;5047068;28;20278;-75
2020/12/30 12:56:35;;;;;;;3.43;1.90;;;;;;;;;;5049050;28;20208;-75
2020/12/30 12:59:00;;;;;;;4.10;2.33;;;;;;;;;;5047718;28;20261;-75
2020/12/30 13:01:25;;;;;;;2.67;1.80;;;;;;;;;;5045798;28;20169;-75
2020/12/30 13:03:50;;;;;;;6.70;2.30;;;;;;;;;;5048512;28;20578;-75
2020/12/30 13:06:34;;;;;;;2.13;1.87;;;;;;;;;;5047031;28;20174;-76
2020/12/30 13:09:00;;;;;;;2.83;2.37;;;;;;;;;;5051180;28;20656;-75
2020/12/30 13:11:25;;;;;;;4.93;2.13;;;;;;;;;;5048500;28;20260;-76
2020/12/30 13:13:50;;;;;;;3.83;2.93;;;;;;;;;;5050612;28;20209;-76
2020/12/30 13:16:16;;;;;;;3.90;2.33;;;;;;;;;;5048481;28;20308;-76
2020/12/30 13:18:42;;;;;;;4.27;2.23;;;;;;;;;;5046513;28;20205;-76
2020/12/30 13:21:07;;;;;;;4.00;2.20;;;;;;;;;;5048098;28;20734;-75
2020/12/30 13:23:32;;;;;;;7.10;1.70;;;;;;;;;;5048542;28;20292;-75
2020/12/30 13:25:58;;;;;;;2.90;1.20;;;;;;;;;;5050529;28;20689;-75
2020/12/30 13:28:23;;;;;;;2.17;1.33;;;;;;;;;;5049234;28;20272;-75
2020/12/30 13:30:49;;;;;;;2.87;1.40;;;;;;;;;;5046739;28;20185;-76
2020/12/30 13:33:14;;;;;;;2.00;1.47;;;;;;;;;;5050125;28;20212;-75
2020/12/30 13:35:39;;;;;;;2.37;1.70;;;;;;;;;;5064561;28;20751;-75
2020/12/30 13:38:05;;;;;;;3.20;1.50;;;;;;;;;;5048599;28;20639;-76
2020/12/30 13:40:30;;;;;;;3.93;1.70;;;;;;;;;;5063591;28;20562;-75
2020/12/30 13:42:55;;;;;;;4.70;1.77;;;;;;;;;;5050625;28;20190;-75
2020/12/30 13:45:20;;;;;;;3.03;1.63;;;;;;;;;;5046739;28;20182;-76
2020/12/30 13:47:45;;;;;;;4.17;1.80;;;;;;;;;;5049263;28;20659;-75
2020/12/30 13:50:10;;;;;;;3.50;1.63;;;;;;;;;;5047057;28;20177;-75
2020/12/30 13:52:36;;;;;;;2.90;1.60;;;;;;;;;;5050277;28;20212;-75
2020/12/30 13:55:01;;;;;;;1.90;1.73;;;;;;;;;;5048390;28;20189;-75
2020/12/30 13:57:26;;;;;;;4.17;2.00;;;;;;;;;;5049979;28;20351;-75
2020/12/30 13:59:51;;;;;;;9.10;2.30;;;;;;;;;;5048948;28;20185;-75
2020/12/30 14:02:16;;;;;;;3.87;1.90;;;;;;;;;;5047344;28;20174;-75
2020/12/30 14:04:41;;;;;;;8.20;4.20;;;;;;;;;;5063799;28;20201;-75
2020/12/30 14:07:07;;;;;;;6.60;2.87;;;;;;;;;;5048708;28;20237;-75
2020/12/30 14:09:32;;;;;;;6.77;3.17;;;;;;;;;;5065921;28;20196;-74
2020/12/30 14:12:00;;;;;;;7.50;2.23;;;;;;;;;;5052721;28;20882;-75
2020/12/30 14:14:25;;;;;;;6.50;2.83;;;;;;;;;;5052588;28;20733;-75
2020/12/30 14:16:50;;;;;;;2.97;1.67;;;;;;;;;;5052070;28;20233;-75
2020/12/30 14:19:15;;;;;;;3.00;1.80;;;;;;;;;;5051471;28;20184;-77
2020/12/30 14:21:40;;;;;;;6.27;3.07;;;;;;;;;;5054270;28;20177;-78
2020/12/30 14:24:05;;;;;;;5.60;3.93;;;;;;;;;;5050119;28;20235;-76
2020/12/30 14:26:31;;;;;;;8.40;3.53;;;;;;;;;;5052795;28;20216;-76